sensor_id;sensor_type;location;lat;lon;timestamp;P1;durP1;ratioP1;P2;durP2;ratioP2
15132;SDS011;7667;51.232;17.110;2024-01-15T00:01:44;10.30;;;8.50;;
15132;SDS011;7667;51.232;17.110;2024-01-15T00:04:12;12.07;;;9.20;;
15132;SDS011;7667;51.232;17.110;2024-01-15T00:06:40;11.40;;;8.57;;
15132;SDS011;7667;51.232;17.110;2024-01-15T00:09:07;10.50;;;8.30;;
15132;SDS011;7667;51.232;17.110;2024-01-15T00:11:36;11.57;;;8.80;;
15132;SDS011;7667;51.232;17.110;2024-01-15T00:14:04;11.37;;;8.57;;
15132;SDS011;7667;51.232;17.110;2024-01-15T00:16:31;10.07;;;7.97;;
15132;SDS011;7667;51.232;17.110;2024-01-15T00:18:59;9.27;;;8.10;;
15132;SDS011;7667;51.232;17.110;2024-01-15T00:21:27;10.20;;;8.27;;
15132;SDS011;7667;51.232;17.110;2024-01-15T00:23:54;10.27;;;8.30;;
15132;SDS011;7667;51.232;17.110;2024-01-15T00:26:22;12.10;;;8.93;;
15132;SDS011;7667;51.232;17.110;2024-01-15T00:28:50;10.67;;;7.87;;
15132;SDS011;7667;51.232;17.110;2024-01-15T00:31:17;10.00;;;7.80;;
15132;SDS011;7667;51.232;17.110;2024-01-15T00:33:45;10.87;;;8.10;;
15132;SDS011;7667;51.232;17.110;2024-01-15T00:36:13;11.30;;;7.80;;
15132;SDS011;7667;51.232;17.110;2024-01-15T00:38:41;11.03;;;7.77;;
15132;SDS011;7667;51.232;17.110;2024-01-15T00:41:11;9.87;;;8.20;;
15132;SDS011;7667;51.232;17.110;2024-01-15T00:43:38;10.63;;;8.03;;
15132;SDS011;7667;51.232;17.110;2024-01-15T00:46:06;10.43;;;8.00;;
15132;SDS011;7667;51.232;17.110;2024-01-15T00:48:33;10.20;;;7.97;;
15132;SDS011;7667;51.232;17.110;2024-01-15T00:51:01;10.40;;;8.23;;
15132;SDS011;7667;51.232;17.110;2024-01-15T00:53:29;10.57;;;7.93;;
15132;SDS011;7667;51.232;17.110;2024-01-15T00:55:57;10.07;;;7.47;;
15132;SDS011;7667;51.232;17.110;2024-01-15T00:58:25;10.73;;;7.50;;
15132;SDS011;7667;51.232;17.110;2024-01-15T01:00:53;10.57;;;8.10;;
15132;SDS011;7667;51.232;17.110;2024-01-15T01:03:21;9.23;;;7.43;;
15132;SDS011;7667;51.232;17.110;2024-01-15T01:05:49;9.23;;;7.70;;
15132;SDS011;7667;51.232;17.110;2024-01-15T01:08:17;9.93;;;8.00;;
15132;SDS011;7667;51.232;17.110;2024-01-15T01:10:45;8.73;;;7.17;;
15132;SDS011;7667;51.232;17.110;2024-01-15T01:13:12;9.73;;;7.50;;
15132;SDS011;7667;51.232;17.110;2024-01-15T01:15:40;9.43;;;7.17;;
15132;SDS011;7667;51.232;17.110;2024-01-15T01:18:07;9.17;;;7.40;;
15132;SDS011;7667;51.232;17.110;2024-01-15T01:20:35;9.37;;;7.10;;
15132;SDS011;7667;51.232;17.110;2024-01-15T01:23:03;9.50;;;6.87;;
15132;SDS011;7667;51.232;17.110;2024-01-15T01:25:31;10.10;;;7.20;;
15132;SDS011;7667;51.232;17.110;2024-01-15T01:27:59;8.73;;;7.13;;
15132;SDS011;7667;51.232;17.110;2024-01-15T01:30:26;8.67;;;7.07;;
15132;SDS011;7667;51.232;17.110;2024-01-15T01:32:54;10.13;;;7.50;;
15132;SDS011;7667;51.232;17.110;2024-01-15T01:35:22;9.53;;;7.20;;
15132;SDS011;7667;51.232;17.110;2024-01-15T01:37:51;9.33;;;6.90;;
15132;SDS011;7667;51.232;17.110;2024-01-15T01:40:18;9.07;;;7.13;;
15132;SDS011;7667;51.232;17.110;2024-01-15T01:42:47;10.03;;;7.27;;
15132;SDS011;7667;51.232;17.110;2024-01-15T01:45:15;8.60;;;7.10;;
15132;SDS011;7667;51.232;17.110;2024-01-15T01:47:43;8.73;;;6.43;;
15132;SDS011;7667;51.232;17.110;2024-01-15T01:50:11;8.70;;;6.33;;
15132;SDS011;7667;51.232;17.110;2024-01-15T01:52:40;11.17;;;7.20;;
15132;SDS011;7667;51.232;17.110;2024-01-15T01:55:08;8.50;;;6.83;;
15132;SDS011;7667;51.232;17.110;2024-01-15T01:57:37;7.93;;;6.57;;
15132;SDS011;7667;51.232;17.110;2024-01-15T02:00:05;8.50;;;6.30;;
15132;SDS011;7667;51.232;17.110;2024-01-15T02:02:34;8.07;;;6.30;;
15132;SDS011;7667;51.232;17.110;2024-01-15T02:05:03;8.27;;;7.10;;
15132;SDS011;7667;51.232;17.110;2024-01-15T02:07:34;9.17;;;7.47;;
15132;SDS011;7667;51.232;17.110;2024-01-15T02:10:02;9.43;;;8.07;;
15132;SDS011;7667;51.232;17.110;2024-01-15T02:12:30;10.57;;;8.43;;
15132;SDS011;7667;51.232;17.110;2024-01-15T02:14:58;10.90;;;8.43;;
15132;SDS011;7667;51.232;17.110;2024-01-15T02:17:26;10.80;;;8.77;;
15132;SDS011;7667;51.232;17.110;2024-01-15T02:19:53;11.13;;;8.67;;
15132;SDS011;7667;51.232;17.110;2024-01-15T02:22:22;11.30;;;8.60;;
15132;SDS011;7667;51.232;17.110;2024-01-15T02:24:49;10.67;;;8.93;;
15132;SDS011;7667;51.232;17.110;2024-01-15T02:27:17;12.53;;;9.60;;
15132;SDS011;7667;51.232;17.110;2024-01-15T02:29:46;10.73;;;9.10;;
15132;SDS011;7667;51.232;17.110;2024-01-15T02:32:14;11.77;;;9.57;;
15132;SDS011;7667;51.232;17.110;2024-01-15T02:34:42;11.20;;;9.73;;
15132;SDS011;7667;51.232;17.110;2024-01-15T02:37:10;12.30;;;9.40;;
15132;SDS011;7667;51.232;17.110;2024-01-15T02:39:37;11.27;;;9.03;;
15132;SDS011;7667;51.232;17.110;2024-01-15T02:42:05;12.20;;;9.17;;
15132;SDS011;7667;51.232;17.110;2024-01-15T02:44:33;11.33;;;9.23;;
15132;SDS011;7667;51.232;17.110;2024-01-15T02:47:00;12.63;;;10.23;;
15132;SDS011;7667;51.232;17.110;2024-01-15T02:49:28;11.83;;;9.97;;
15132;SDS011;7667;51.232;17.110;2024-01-15T02:51:56;11.80;;;10.20;;
15132;SDS011;7667;51.232;17.110;2024-01-15T02:54:23;12.07;;;10.43;;
15132;SDS011;7667;51.232;17.110;2024-01-15T02:56:51;11.67;;;9.90;;
15132;SDS011;7667;51.232;17.110;2024-01-15T02:59:19;9.93;;;8.47;;
15132;SDS011;7667;51.232;17.110;2024-01-15T03:01:46;9.10;;;7.77;;
15132;SDS011;7667;51.232;17.110;2024-01-15T03:04:14;9.70;;;8.70;;
15132;SDS011;7667;51.232;17.110;2024-01-15T03:06:42;10.53;;;9.23;;
15132;SDS011;7667;51.232;17.110;2024-01-15T03:09:09;10.47;;;8.37;;
15132;SDS011;7667;51.232;17.110;2024-01-15T03:11:40;10.33;;;8.73;;
15132;SDS011;7667;51.232;17.110;2024-01-15T03:14:07;12.10;;;9.20;;
15132;SDS011;7667;51.232;17.110;2024-01-15T03:16:35;10.20;;;8.77;;
15132;SDS011;7667;51.232;17.110;2024-01-15T03:19:03;9.07;;;8.13;;
15132;SDS011;7667;51.232;17.110;2024-01-15T03:21:30;10.73;;;9.07;;
15132;SDS011;7667;51.232;17.110;2024-01-15T03:23:58;11.00;;;8.20;;
15132;SDS011;7667;51.232;17.110;2024-01-15T03:26:25;9.50;;;7.63;;
15132;SDS011;7667;51.232;17.110;2024-01-15T03:28:53;9.13;;;8.10;;
15132;SDS011;7667;51.232;17.110;2024-01-15T03:31:20;9.80;;;7.87;;
15132;SDS011;7667;51.232;17.110;2024-01-15T03:33:48;7.43;;;6.70;;
15132;SDS011;7667;51.232;17.110;2024-01-15T03:36:16;8.30;;;7.03;;
15132;SDS011;7667;51.232;17.110;2024-01-15T03:38:43;8.30;;;7.00;;
15132;SDS011;7667;51.232;17.110;2024-01-15T03:41:11;9.43;;;6.83;;
15132;SDS011;7667;51.232;17.110;2024-01-15T03:43:39;8.50;;;7.17;;
15132;SDS011;7667;51.232;17.110;2024-01-15T03:46:07;7.57;;;6.47;;
15132;SDS011;7667;51.232;17.110;2024-01-15T03:48:34;7.60;;;6.40;;
15132;SDS011;7667;51.232;17.110;2024-01-15T03:51:02;7.20;;;6.27;;
15132;SDS011;7667;51.232;17.110;2024-01-15T03:53:30;6.90;;;6.20;;
15132;SDS011;7667;51.232;17.110;2024-01-15T03:55:58;7.20;;;6.27;;
15132;SDS011;7667;51.232;17.110;2024-01-15T03:58:26;7.93;;;6.20;;
15132;SDS011;7667;51.232;17.110;2024-01-15T04:00:53;7.80;;;6.00;;
15132;SDS011;7667;51.232;17.110;2024-01-15T04:03:21;7.00;;;5.77;;
15132;SDS011;7667;51.232;17.110;2024-01-15T04:05:49;7.20;;;6.17;;
15132;SDS011;7667;51.232;17.110;2024-01-15T04:08:16;6.80;;;5.40;;
15132;SDS011;7667;51.232;17.110;2024-01-15T04:10:44;7.07;;;6.03;;
15132;SDS011;7667;51.232;17.110;2024-01-15T04:13:11;5.83;;;5.23;;
15132;SDS011;7667;51.232;17.110;2024-01-15T04:15:39;7.37;;;5.77;;
15132;SDS011;7667;51.232;17.110;2024-01-15T04:18:07;6.20;;;5.30;;
15132;SDS011;7667;51.232;17.110;2024-01-15T04:20:35;7.93;;;6.30;;
15132;SDS011;7667;51.232;17.110;2024-01-15T04:23:03;7.73;;;6.03;;
15132;SDS011;7667;51.232;17.110;2024-01-15T04:25:31;9.03;;;6.47;;
15132;SDS011;7667;51.232;17.110;2024-01-15T04:27:59;7.33;;;5.90;;
15132;SDS011;7667;51.232;17.110;2024-01-15T04:30:26;7.50;;;5.73;;
15132;SDS011;7667;51.232;17.110;2024-01-15T04:32:54;8.37;;;6.00;;
15132;SDS011;7667;51.232;17.110;2024-01-15T04:35:22;8.40;;;6.33;;
15132;SDS011;7667;51.232;17.110;2024-01-15T04:37:49;7.80;;;5.63;;
15132;SDS011;7667;51.232;17.110;2024-01-15T04:40:17;6.63;;;5.10;;
15132;SDS011;7667;51.232;17.110;2024-01-15T04:42:44;5.83;;;4.37;;
15132;SDS011;7667;51.232;17.110;2024-01-15T04:45:12;5.10;;;4.23;;
15132;SDS011;7667;51.232;17.110;2024-01-15T04:47:40;5.00;;;4.00;;
15132;SDS011;7667;51.232;17.110;2024-01-15T04:50:09;4.60;;;3.70;;
15132;SDS011;7667;51.232;17.110;2024-01-15T04:52:36;4.20;;;3.77;;
15132;SDS011;7667;51.232;17.110;2024-01-15T04:55:04;4.40;;;3.77;;
15132;SDS011;7667;51.232;17.110;2024-01-15T04:57:32;4.90;;;3.90;;
15132;SDS011;7667;51.232;17.110;2024-01-15T04:59:59;4.37;;;3.73;;
15132;SDS011;7667;51.232;17.110;2024-01-15T05:02:27;5.33;;;3.80;;
15132;SDS011;7667;51.232;17.110;2024-01-15T05:04:55;5.57;;;4.03;;
15132;SDS011;7667;51.232;17.110;2024-01-15T05:07:22;5.17;;;4.10;;
15132;SDS011;7667;51.232;17.110;2024-01-15T05:09:50;4.67;;;3.63;;
15132;SDS011;7667;51.232;17.110;2024-01-15T05:12:17;4.50;;;3.70;;
15132;SDS011;7667;51.232;17.110;2024-01-15T05:14:45;6.30;;;4.40;;
15132;SDS011;7667;51.232;17.110;2024-01-15T05:17:12;4.90;;;4.17;;
15132;SDS011;7667;51.232;17.110;2024-01-15T05:19:40;5.67;;;4.30;;
15132;SDS011;7667;51.232;17.110;2024-01-15T05:22:08;4.70;;;3.87;;
15132;SDS011;7667;51.232;17.110;2024-01-15T05:24:35;5.27;;;4.50;;
15132;SDS011;7667;51.232;17.110;2024-01-15T05:27:03;5.80;;;4.40;;
15132;SDS011;7667;51.232;17.110;2024-01-15T05:29:31;5.70;;;4.73;;
15132;SDS011;7667;51.232;17.110;2024-01-15T05:31:58;5.93;;;4.80;;
15132;SDS011;7667;51.232;17.110;2024-01-15T05:34:28;6.47;;;5.10;;
15132;SDS011;7667;51.232;17.110;2024-01-15T05:36:56;6.17;;;5.10;;
15132;SDS011;7667;51.232;17.110;2024-01-15T05:39:23;6.27;;;5.40;;
15132;SDS011;7667;51.232;17.110;2024-01-15T05:41:51;6.57;;;5.47;;
15132;SDS011;7667;51.232;17.110;2024-01-15T05:44:19;6.53;;;5.67;;
15132;SDS011;7667;51.232;17.110;2024-01-15T05:46:46;7.33;;;5.93;;
15132;SDS011;7667;51.232;17.110;2024-01-15T05:49:14;7.37;;;5.60;;
15132;SDS011;7667;51.232;17.110;2024-01-15T05:51:42;7.07;;;6.37;;
15132;SDS011;7667;51.232;17.110;2024-01-15T05:54:09;6.80;;;6.10;;
15132;SDS011;7667;51.232;17.110;2024-01-15T05:56:37;6.57;;;5.90;;
15132;SDS011;7667;51.232;17.110;2024-01-15T05:59:04;6.50;;;5.20;;
15132;SDS011;7667;51.232;17.110;2024-01-15T06:01:32;6.03;;;4.93;;
15132;SDS011;7667;51.232;17.110;2024-01-15T06:04:00;7.30;;;5.80;;
15132;SDS011;7667;51.232;17.110;2024-01-15T06:06:28;6.77;;;5.53;;
15132;SDS011;7667;51.232;17.110;2024-01-15T06:08:56;6.67;;;5.20;;
15132;SDS011;7667;51.232;17.110;2024-01-15T06:11:29;7.50;;;6.03;;
15132;SDS011;7667;51.232;17.110;2024-01-15T06:14:00;7.93;;;5.73;;
15132;SDS011;7667;51.232;17.110;2024-01-15T06:16:28;6.67;;;5.30;;
15132;SDS011;7667;51.232;17.110;2024-01-15T06:18:56;6.43;;;5.43;;
15132;SDS011;7667;51.232;17.110;2024-01-15T06:21:24;5.77;;;4.80;;
15132;SDS011;7667;51.232;17.110;2024-01-15T06:23:52;6.00;;;5.23;;
15132;SDS011;7667;51.232;17.110;2024-01-15T06:26:19;6.33;;;5.13;;
15132;SDS011;7667;51.232;17.110;2024-01-15T06:28:47;7.03;;;5.50;;
15132;SDS011;7667;51.232;17.110;2024-01-15T06:31:15;6.57;;;5.47;;
15132;SDS011;7667;51.232;17.110;2024-01-15T06:33:43;7.70;;;6.20;;
15132;SDS011;7667;51.232;17.110;2024-01-15T06:36:14;7.87;;;5.80;;
15132;SDS011;7667;51.232;17.110;2024-01-15T06:38:43;7.17;;;5.70;;
15132;SDS011;7667;51.232;17.110;2024-01-15T06:41:11;7.37;;;5.57;;
15132;SDS011;7667;51.232;17.110;2024-01-15T06:43:39;7.10;;;5.53;;
15132;SDS011;7667;51.232;17.110;2024-01-15T06:46:06;8.43;;;6.10;;
15132;SDS011;7667;51.232;17.110;2024-01-15T06:48:34;7.03;;;5.33;;
15132;SDS011;7667;51.232;17.110;2024-01-15T06:51:02;7.40;;;5.47;;
15132;SDS011;7667;51.232;17.110;2024-01-15T06:53:30;7.87;;;5.70;;
15132;SDS011;7667;51.232;17.110;2024-01-15T06:55:58;7.57;;;5.73;;
15132;SDS011;7667;51.232;17.110;2024-01-15T06:58:25;6.43;;;4.97;;
15132;SDS011;7667;51.232;17.110;2024-01-15T07:00:53;7.33;;;5.50;;
15132;SDS011;7667;51.232;17.110;2024-01-15T07:03:21;7.57;;;5.63;;
15132;SDS011;7667;51.232;17.110;2024-01-15T07:05:49;7.30;;;5.10;;
15132;SDS011;7667;51.232;17.110;2024-01-15T07:08:16;7.27;;;6.13;;
15132;SDS011;7667;51.232;17.110;2024-01-15T07:10:44;7.00;;;5.40;;
15132;SDS011;7667;51.232;17.110;2024-01-15T07:13:11;7.67;;;5.77;;
15132;SDS011;7667;51.232;17.110;2024-01-15T07:15:39;6.50;;;5.33;;
15132;SDS011;7667;51.232;17.110;2024-01-15T07:18:07;7.83;;;6.30;;
15132;SDS011;7667;51.232;17.110;2024-01-15T07:20:34;8.93;;;5.50;;
15132;SDS011;7667;51.232;17.110;2024-01-15T07:23:02;6.60;;;5.20;;
15132;SDS011;7667;51.232;17.110;2024-01-15T07:25:30;6.87;;;5.23;;
15132;SDS011;7667;51.232;17.110;2024-01-15T07:27:58;7.63;;;5.50;;
15132;SDS011;7667;51.232;17.110;2024-01-15T07:30:26;7.07;;;5.43;;
15132;SDS011;7667;51.232;17.110;2024-01-15T07:32:54;6.80;;;5.60;;
15132;SDS011;7667;51.232;17.110;2024-01-15T07:35:21;7.90;;;5.20;;
15132;SDS011;7667;51.232;17.110;2024-01-15T07:37:49;9.07;;;5.50;;
15132;SDS011;7667;51.232;17.110;2024-01-15T07:40:16;6.93;;;5.20;;
15132;SDS011;7667;51.232;17.110;2024-01-15T07:42:44;7.10;;;4.97;;
15132;SDS011;7667;51.232;17.110;2024-01-15T07:45:12;7.70;;;5.63;;
15132;SDS011;7667;51.232;17.110;2024-01-15T07:47:39;6.73;;;5.67;;
15132;SDS011;7667;51.232;17.110;2024-01-15T07:50:07;8.30;;;5.33;;
15132;SDS011;7667;51.232;17.110;2024-01-15T07:52:35;7.77;;;5.57;;
15132;SDS011;7667;51.232;17.110;2024-01-15T07:55:03;7.07;;;5.90;;
15132;SDS011;7667;51.232;17.110;2024-01-15T07:57:32;7.17;;;4.80;;
15132;SDS011;7667;51.232;17.110;2024-01-15T07:59:59;8.03;;;5.57;;
15132;SDS011;7667;51.232;17.110;2024-01-15T08:02:28;6.47;;;4.63;;
15132;SDS011;7667;51.232;17.110;2024-01-15T08:05:00;6.67;;;5.03;;
15132;SDS011;7667;51.232;17.110;2024-01-15T08:07:27;6.63;;;5.10;;
15132;SDS011;7667;51.232;17.110;2024-01-15T08:09:55;6.53;;;4.33;;
15132;SDS011;7667;51.232;17.110;2024-01-15T08:12:23;6.17;;;4.40;;
15132;SDS011;7667;51.232;17.110;2024-01-15T08:14:50;6.23;;;4.20;;
15132;SDS011;7667;51.232;17.110;2024-01-15T08:17:18;6.27;;;4.13;;
15132;SDS011;7667;51.232;17.110;2024-01-15T08:19:45;5.77;;;3.90;;
15132;SDS011;7667;51.232;17.110;2024-01-15T08:22:13;5.93;;;4.20;;
15132;SDS011;7667;51.232;17.110;2024-01-15T08:24:41;6.57;;;4.50;;
15132;SDS011;7667;51.232;17.110;2024-01-15T08:27:08;6.20;;;4.70;;
15132;SDS011;7667;51.232;17.110;2024-01-15T08:29:36;6.57;;;3.97;;
15132;SDS011;7667;51.232;17.110;2024-01-15T08:32:04;6.67;;;4.20;;
15132;SDS011;7667;51.232;17.110;2024-01-15T08:34:32;6.27;;;4.20;;
15132;SDS011;7667;51.232;17.110;2024-01-15T08:37:00;6.37;;;4.00;;
15132;SDS011;7667;51.232;17.110;2024-01-15T08:39:27;5.20;;;3.73;;
15132;SDS011;7667;51.232;17.110;2024-01-15T08:41:55;6.53;;;4.00;;
15132;SDS011;7667;51.232;17.110;2024-01-15T08:44:22;5.93;;;3.80;;
15132;SDS011;7667;51.232;17.110;2024-01-15T08:46:50;5.47;;;4.20;;
15132;SDS011;7667;51.232;17.110;2024-01-15T08:49:17;5.13;;;4.10;;
15132;SDS011;7667;51.232;17.110;2024-01-15T08:51:45;5.10;;;3.87;;
15132;SDS011;7667;51.232;17.110;2024-01-15T08:54:13;4.53;;;3.67;;
15132;SDS011;7667;51.232;17.110;2024-01-15T08:56:41;6.10;;;3.90;;
15132;SDS011;7667;51.232;17.110;2024-01-15T08:59:08;5.87;;;3.90;;
15132;SDS011;7667;51.232;17.110;2024-01-15T09:01:38;5.20;;;3.90;;
15132;SDS011;7667;51.232;17.110;2024-01-15T09:04:06;5.80;;;4.53;;
15132;SDS011;7667;51.232;17.110;2024-01-15T09:06:34;7.77;;;3.73;;
15132;SDS011;7667;51.232;17.110;2024-01-15T09:09:02;6.10;;;4.20;;
15132;SDS011;7667;51.232;17.110;2024-01-15T09:11:29;7.87;;;4.10;;
15132;SDS011;7667;51.232;17.110;2024-01-15T09:13:58;5.87;;;4.10;;
15132;SDS011;7667;51.232;17.110;2024-01-15T09:16:26;6.63;;;3.80;;
15132;SDS011;7667;51.232;17.110;2024-01-15T09:18:53;5.83;;;4.00;;
15132;SDS011;7667;51.232;17.110;2024-01-15T09:21:23;5.33;;;3.97;;
15132;SDS011;7667;51.232;17.110;2024-01-15T09:23:51;6.07;;;4.00;;
15132;SDS011;7667;51.232;17.110;2024-01-15T09:26:18;5.57;;;3.70;;
15132;SDS011;7667;51.232;17.110;2024-01-15T09:28:46;5.30;;;3.97;;
15132;SDS011;7667;51.232;17.110;2024-01-15T09:31:13;5.67;;;4.20;;
15132;SDS011;7667;51.232;17.110;2024-01-15T09:33:41;5.90;;;3.90;;
15132;SDS011;7667;51.232;17.110;2024-01-15T09:36:09;7.70;;;4.17;;
15132;SDS011;7667;51.232;17.110;2024-01-15T09:38:37;5.90;;;4.00;;
15132;SDS011;7667;51.232;17.110;2024-01-15T09:41:07;6.63;;;4.27;;
15132;SDS011;7667;51.232;17.110;2024-01-15T09:43:34;5.40;;;4.03;;
15132;SDS011;7667;51.232;17.110;2024-01-15T09:46:04;6.70;;;3.90;;
15132;SDS011;7667;51.232;17.110;2024-01-15T09:48:32;7.30;;;4.03;;
15132;SDS011;7667;51.232;17.110;2024-01-15T09:51:03;5.23;;;4.03;;
15132;SDS011;7667;51.232;17.110;2024-01-15T09:53:34;5.43;;;3.77;;
15132;SDS011;7667;51.232;17.110;2024-01-15T09:56:04;7.57;;;3.97;;
15132;SDS011;7667;51.232;17.110;2024-01-15T09:58:32;6.07;;;3.90;;
15132;SDS011;7667;51.232;17.110;2024-01-15T10:01:01;6.70;;;3.90;;
15132;SDS011;7667;51.232;17.110;2024-01-15T10:03:34;5.33;;;3.90;;
15132;SDS011;7667;51.232;17.110;2024-01-15T10:06:02;5.50;;;3.40;;
15132;SDS011;7667;51.232;17.110;2024-01-15T10:08:30;5.20;;;3.53;;
15132;SDS011;7667;51.232;17.110;2024-01-15T10:10:59;5.87;;;3.73;;
15132;SDS011;7667;51.232;17.110;2024-01-15T10:13:26;4.53;;;3.17;;
15132;SDS011;7667;51.232;17.110;2024-01-15T10:15:55;6.63;;;3.93;;
15132;SDS011;7667;51.232;17.110;2024-01-15T10:18:22;6.43;;;4.00;;
15132;SDS011;7667;51.232;17.110;2024-01-15T10:20:50;5.93;;;3.80;;
15132;SDS011;7667;51.232;17.110;2024-01-15T10:23:18;6.47;;;3.67;;
15132;SDS011;7667;51.232;17.110;2024-01-15T10:25:46;5.30;;;3.77;;
15132;SDS011;7667;51.232;17.110;2024-01-15T10:28:13;6.57;;;4.13;;
15132;SDS011;7667;51.232;17.110;2024-01-15T10:30:41;6.30;;;3.50;;
15132;SDS011;7667;51.232;17.110;2024-01-15T10:33:09;6.63;;;3.70;;
15132;SDS011;7667;51.232;17.110;2024-01-15T10:35:37;5.63;;;3.80;;
15132;SDS011;7667;51.232;17.110;2024-01-15T10:38:05;6.60;;;3.90;;
15132;SDS011;7667;51.232;17.110;2024-01-15T10:40:33;7.30;;;4.00;;
15132;SDS011;7667;51.232;17.110;2024-01-15T10:43:00;6.37;;;4.00;;
15132;SDS011;7667;51.232;17.110;2024-01-15T10:45:28;6.47;;;4.03;;
15132;SDS011;7667;51.232;17.110;2024-01-15T10:47:56;6.63;;;3.80;;
15132;SDS011;7667;51.232;17.110;2024-01-15T10:50:29;7.50;;;4.27;;
15132;SDS011;7667;51.232;17.110;2024-01-15T10:52:58;6.07;;;3.70;;
15132;SDS011;7667;51.232;17.110;2024-01-15T10:55:25;5.73;;;3.77;;
15132;SDS011;7667;51.232;17.110;2024-01-15T10:57:54;6.87;;;4.10;;
15132;SDS011;7667;51.232;17.110;2024-01-15T11:00:23;6.40;;;4.23;;
15132;SDS011;7667;51.232;17.110;2024-01-15T11:02:52;6.13;;;3.70;;
15132;SDS011;7667;51.232;17.110;2024-01-15T11:05:22;6.73;;;4.13;;
15132;SDS011;7667;51.232;17.110;2024-01-15T11:07:50;5.70;;;3.30;;
15132;SDS011;7667;51.232;17.110;2024-01-15T11:10:37;5.10;;;3.40;;
15132;SDS011;7667;51.232;17.110;2024-01-15T11:13:14;6.47;;;3.57;;
15132;SDS011;7667;51.232;17.110;2024-01-15T11:16:00;5.83;;;3.50;;
15132;SDS011;7667;51.232;17.110;2024-01-15T11:18:36;6.43;;;3.90;;
15132;SDS011;7667;51.232;17.110;2024-01-15T11:31:57;7.13;;;3.70;;
15132;SDS011;7667;51.232;17.110;2024-01-15T11:37:56;5.13;;;3.20;;
15132;SDS011;7667;51.232;17.110;2024-01-15T11:40:18;7.90;;;3.80;;
15132;SDS011;7667;51.232;17.110;2024-01-15T11:42:59;6.37;;;3.80;;
15132;SDS011;7667;51.232;17.110;2024-01-15T11:45:27;5.77;;;3.70;;
15132;SDS011;7667;51.232;17.110;2024-01-15T11:50:45;5.30;;;3.27;;
15132;SDS011;7667;51.232;17.110;2024-01-15T11:53:21;7.20;;;3.40;;
15132;SDS011;7667;51.232;17.110;2024-01-15T11:56:03;6.63;;;3.33;;
15132;SDS011;7667;51.232;17.110;2024-01-15T11:58:42;4.77;;;3.23;;
15132;SDS011;7667;51.232;17.110;2024-01-15T12:01:10;5.57;;;3.27;;
15132;SDS011;7667;51.232;17.110;2024-01-15T12:03:38;6.10;;;2.90;;
15132;SDS011;7667;51.232;17.110;2024-01-15T12:06:06;7.30;;;3.40;;
15132;SDS011;7667;51.232;17.110;2024-01-15T12:08:36;5.77;;;3.50;;
15132;SDS011;7667;51.232;17.110;2024-01-15T12:11:06;6.20;;;3.57;;
15132;SDS011;7667;51.232;17.110;2024-01-15T12:13:39;5.70;;;3.67;;
15132;SDS011;7667;51.232;17.110;2024-01-15T12:16:06;5.27;;;3.10;;
15132;SDS011;7667;51.232;17.110;2024-01-15T12:18:34;5.87;;;3.70;;
15132;SDS011;7667;51.232;17.110;2024-01-15T12:21:03;5.37;;;3.13;;
15132;SDS011;7667;51.232;17.110;2024-01-15T12:23:31;6.37;;;3.70;;
15132;SDS011;7667;51.232;17.110;2024-01-15T12:25:58;6.70;;;3.67;;
15132;SDS011;7667;51.232;17.110;2024-01-15T12:28:27;5.97;;;3.43;;
15132;SDS011;7667;51.232;17.110;2024-01-15T12:30:55;4.07;;;3.10;;
15132;SDS011;7667;51.232;17.110;2024-01-15T12:33:23;5.40;;;3.57;;
15132;SDS011;7667;51.232;17.110;2024-01-15T12:35:54;4.57;;;2.90;;
15132;SDS011;7667;51.232;17.110;2024-01-15T12:38:21;6.97;;;3.73;;
15132;SDS011;7667;51.232;17.110;2024-01-15T12:40:48;5.43;;;3.80;;
15132;SDS011;7667;51.232;17.110;2024-01-15T12:43:17;6.43;;;4.10;;
15132;SDS011;7667;51.232;17.110;2024-01-15T12:45:45;5.37;;;3.63;;
15132;SDS011;7667;51.232;17.110;2024-01-15T12:48:13;6.57;;;3.60;;
15132;SDS011;7667;51.232;17.110;2024-01-15T12:50:45;5.73;;;3.30;;
15132;SDS011;7667;51.232;17.110;2024-01-15T12:53:13;6.03;;;3.90;;
15132;SDS011;7667;51.232;17.110;2024-01-15T12:55:42;5.67;;;3.87;;
15132;SDS011;7667;51.232;17.110;2024-01-15T12:58:18;5.67;;;3.80;;
15132;SDS011;7667;51.232;17.110;2024-01-15T13:00:46;4.37;;;3.03;;
15132;SDS011;7667;51.232;17.110;2024-01-15T13:03:14;5.50;;;3.40;;
15132;SDS011;7667;51.232;17.110;2024-01-15T13:05:42;6.07;;;3.70;;
15132;SDS011;7667;51.232;17.110;2024-01-15T13:08:10;6.67;;;3.50;;
15132;SDS011;7667;51.232;17.110;2024-01-15T13:10:37;7.90;;;4.17;;
15132;SDS011;7667;51.232;17.110;2024-01-15T13:13:05;5.83;;;3.83;;
15132;SDS011;7667;51.232;17.110;2024-01-15T13:15:32;6.60;;;3.73;;
15132;SDS011;7667;51.232;17.110;2024-01-15T13:18:00;6.67;;;3.80;;
15132;SDS011;7667;51.232;17.110;2024-01-15T13:20:28;5.10;;;3.37;;
15132;SDS011;7667;51.232;17.110;2024-01-15T13:22:55;6.47;;;3.80;;
15132;SDS011;7667;51.232;17.110;2024-01-15T13:25:25;5.57;;;3.50;;
15132;SDS011;7667;51.232;17.110;2024-01-15T13:27:52;6.63;;;3.70;;
15132;SDS011;7667;51.232;17.110;2024-01-15T13:30:20;5.80;;;3.43;;
15132;SDS011;7667;51.232;17.110;2024-01-15T13:32:48;6.07;;;3.90;;
15132;SDS011;7667;51.232;17.110;2024-01-15T13:35:15;5.50;;;3.63;;
15132;SDS011;7667;51.232;17.110;2024-01-15T13:37:43;5.87;;;3.43;;
15132;SDS011;7667;51.232;17.110;2024-01-15T13:40:11;5.23;;;3.80;;
15132;SDS011;7667;51.232;17.110;2024-01-15T13:42:43;7.17;;;3.90;;
15132;SDS011;7667;51.232;17.110;2024-01-15T13:45:12;5.97;;;3.87;;
15132;SDS011;7667;51.232;17.110;2024-01-15T13:47:43;5.73;;;3.77;;
15132;SDS011;7667;51.232;17.110;2024-01-15T13:50:11;5.43;;;3.37;;
15132;SDS011;7667;51.232;17.110;2024-01-15T13:52:39;5.47;;;3.70;;
15132;SDS011;7667;51.232;17.110;2024-01-15T13:55:07;6.50;;;3.77;;
15132;SDS011;7667;51.232;17.110;2024-01-15T13:57:36;7.67;;;4.03;;
15132;SDS011;7667;51.232;17.110;2024-01-15T14:00:04;5.77;;;4.00;;
15132;SDS011;7667;51.232;17.110;2024-01-15T14:02:36;6.57;;;4.30;;
15132;SDS011;7667;51.232;17.110;2024-01-15T14:05:04;6.23;;;4.03;;
15132;SDS011;7667;51.232;17.110;2024-01-15T14:07:33;6.83;;;4.17;;
15132;SDS011;7667;51.232;17.110;2024-01-15T14:10:00;6.40;;;4.17;;
15132;SDS011;7667;51.232;17.110;2024-01-15T14:12:28;7.07;;;4.27;;
15132;SDS011;7667;51.232;17.110;2024-01-15T14:14:56;6.60;;;3.50;;
15132;SDS011;7667;51.232;17.110;2024-01-15T14:17:23;7.00;;;3.63;;
15132;SDS011;7667;51.232;17.110;2024-01-15T14:19:51;7.03;;;3.50;;
15132;SDS011;7667;51.232;17.110;2024-01-15T14:22:22;6.10;;;3.50;;
15132;SDS011;7667;51.232;17.110;2024-01-15T14:24:49;6.53;;;3.70;;
15132;SDS011;7667;51.232;17.110;2024-01-15T14:27:17;5.80;;;3.57;;
15132;SDS011;7667;51.232;17.110;2024-01-15T14:29:45;5.03;;;4.07;;
15132;SDS011;7667;51.232;17.110;2024-01-15T14:32:13;4.97;;;3.50;;
15132;SDS011;7667;51.232;17.110;2024-01-15T14:34:41;5.40;;;3.63;;
15132;SDS011;7667;51.232;17.110;2024-01-15T14:37:08;6.30;;;4.00;;
15132;SDS011;7667;51.232;17.110;2024-01-15T14:39:36;5.93;;;3.67;;
15132;SDS011;7667;51.232;17.110;2024-01-15T14:42:04;5.53;;;3.67;;
15132;SDS011;7667;51.232;17.110;2024-01-15T14:44:31;5.40;;;4.00;;
15132;SDS011;7667;51.232;17.110;2024-01-15T14:47:01;4.97;;;3.90;;
15132;SDS011;7667;51.232;17.110;2024-01-15T14:49:29;7.17;;;4.03;;
15132;SDS011;7667;51.232;17.110;2024-01-15T14:51:58;5.73;;;3.57;;
15132;SDS011;7667;51.232;17.110;2024-01-15T14:54:26;5.33;;;3.60;;
15132;SDS011;7667;51.232;17.110;2024-01-15T14:56:54;6.83;;;3.83;;
15132;SDS011;7667;51.232;17.110;2024-01-15T14:59:23;5.80;;;3.70;;
15132;SDS011;7667;51.232;17.110;2024-01-15T15:01:51;6.20;;;3.40;;
15132;SDS011;7667;51.232;17.110;2024-01-15T15:04:20;6.60;;;3.43;;
15132;SDS011;7667;51.232;17.110;2024-01-15T15:06:48;6.33;;;3.37;;
15132;SDS011;7667;51.232;17.110;2024-01-15T15:09:16;6.00;;;3.60;;